Briefing drone pour Chevigny-saint-sauveur

Rechercher une autre localisation

Conditions de vol :


Nous sommes le : Dimanche 16 mai 2021
Il est 23:38 UTC (01:38 LT)

Lever de soleil : 03:35 UTC (05:35 LT)
Coucher de soleil : 19:36 UTC (21:36 LT)

Météo

L'essentiel des conditions de vol

VIGILANCE MÉTÉO FRANCE - Côte-dOr (21)
Pas de vigilances particulieres
CARTE TEMSI
CARTES DES FRONTS
METAR de LFSD
LFSD 152330Z AUTO 19009KT 9999 FEW039 BKN054 BKN068 09/08 Q1008

Date d'émission: 15/05/2021
Heure d'émission: 23:30 UTC
Vent: 190° pour 9 KT (17 km/h)
Visibilité horizontale: > 10 km
Plafond :
- Peu de nuages à 3900ft (1189m)
- Nuages morcelés à 5400ft (1646m)
- Nuages morcelés à 6800ft (2073m)
Température: 9 °C
Point de rosée: 8 °C
Humidité: 93%
Pression (QNH): 1008 hPa
TAF de LFSD
LFSD 010600Z 0100/0124 CNL

Conditions prévues :

Heure d'émission : Bulletin éffectué le 01 à 00:00 UTC
Prévision : Valide du 01 a 00:00 UTC au 01 a 23:59 UTC
Nuages : à 0ft (0 m)
WEBCAM POUR CHEVIGNY-SAINT-SAUVEUR

Réglementation

Voler en sécurité

CARTES AERONAUTIQUE 1/500.000
CARTES VAC (LFSD)
SUP AIP




Chargement des AIP...
NOTAM (CHEVIGNY-SAINT-SAUVEUR + Terrain à proximité / FIR )




Chargement des NOTAMS...
CONTACT PREFECTURE 21
Côte-dOr (21) : pref-drone@cote-dor.gouv.fr


Avertissement : Les données mises à disposition sont indicatives. Oxygène Drone ne pourra être tenu responsable de dégâts causés aux biens et aux personnes.